Terminal Aerodrome Forecast
Issued by NWS Twin Cities, MN

Home | Current Version | Previous Version | Graphics & Text | Print | Product List | Glossary On
Versions: 1 2 3 4 5 6 7 8 9 10 11 12 13 14
000
FTUS43 KMPX 202322
TAFSTC
TAF
KSTC 202322Z 2100/2124 22009KT P6SM BKN200
     FM210200 25010KT P6SM BKN250
     FM210500 29014G21KT P6SM SCT200
     FM210800 30020G28KT P6SM OVC050
     FM211500 32019G30KT P6SM SCT150
     FM212200 31015G22KT P6SM SKC=

USA.gov is the U.S. government's official web portal to all federal, state and local government web resources and services.